sensor_id;sensor_type;location;lat;lon;timestamp;P1;durP1;ratioP1;P2;durP2;ratioP2
75274;SDS011;63871;47.216;39.684;2023-07-02T00:01:48;13.07;;;8.57;;
75274;SDS011;63871;47.216;39.684;2023-07-02T00:04:14;15.18;;;8.68;;
75274;SDS011;63871;47.216;39.684;2023-07-02T00:06:44;14.00;;;8.45;;
75274;SDS011;63871;47.216;39.684;2023-07-02T00:09:10;12.75;;;8.57;;
75274;SDS011;63871;47.216;39.684;2023-07-02T00:11:37;13.30;;;9.07;;
75274;SDS011;63871;47.216;39.684;2023-07-02T00:14:22;12.90;;;8.52;;
75274;SDS011;63871;47.216;39.684;2023-07-02T00:16:47;12.35;;;7.63;;
75274;SDS011;63871;47.216;39.684;2023-07-02T00:19:13;12.45;;;7.75;;
75274;SDS011;63871;47.216;39.684;2023-07-02T00:21:39;10.60;;;6.95;;
75274;SDS011;63871;47.216;39.684;2023-07-02T00:24:06;13.52;;;7.65;;
75274;SDS011;63871;47.216;39.684;2023-07-02T00:26:34;12.48;;;5.60;;
75274;SDS011;63871;47.216;39.684;2023-07-02T00:29:01;10.55;;;6.97;;
75274;SDS011;63871;47.216;39.684;2023-07-02T00:37:14;13.73;;;7.40;;
75274;SDS011;63871;47.216;39.684;2023-07-02T00:39:40;11.43;;;8.88;;
75274;SDS011;63871;47.216;39.684;2023-07-02T00:42:06;11.10;;;7.50;;
75274;SDS011;63871;47.216;39.684;2023-07-02T00:44:33;10.50;;;7.10;;
75274;SDS011;63871;47.216;39.684;2023-07-02T00:49:50;12.73;;;8.07;;
75274;SDS011;63871;47.216;39.684;2023-07-02T00:52:16;11.20;;;6.90;;
75274;SDS011;63871;47.216;39.684;2023-07-02T00:54:43;13.70;;;8.15;;
75274;SDS011;63871;47.216;39.684;2023-07-02T00:57:09;12.02;;;7.72;;
75274;SDS011;63871;47.216;39.684;2023-07-02T00:59:35;14.35;;;8.35;;
75274;SDS011;63871;47.216;39.684;2023-07-02T01:02:01;15.90;;;9.07;;
75274;SDS011;63871;47.216;39.684;2023-07-02T01:04:27;11.48;;;7.72;;
75274;SDS011;63871;47.216;39.684;2023-07-02T01:06:53;13.50;;;8.90;;
75274;SDS011;63871;47.216;39.684;2023-07-02T01:09:44;14.82;;;9.60;;
75274;SDS011;63871;47.216;39.684;2023-07-02T01:12:09;13.32;;;9.45;;
75274;SDS011;63871;47.216;39.684;2023-07-02T01:14:37;12.90;;;8.23;;
75274;SDS011;63871;47.216;39.684;2023-07-02T01:17:05;16.95;;;10.35;;
75274;SDS011;63871;47.216;39.684;2023-07-02T01:19:45;16.73;;;10.18;;
75274;SDS011;63871;47.216;39.684;2023-07-02T01:22:19;15.73;;;9.32;;
75274;SDS011;63871;47.216;39.684;2023-07-02T01:24:46;16.65;;;9.75;;
75274;SDS011;63871;47.216;39.684;2023-07-02T01:27:13;15.95;;;9.27;;
75274;SDS011;63871;47.216;39.684;2023-07-02T01:29:40;13.82;;;8.65;;
75274;SDS011;63871;47.216;39.684;2023-07-02T01:32:06;16.77;;;9.52;;
75274;SDS011;63871;47.216;39.684;2023-07-02T01:34:33;16.63;;;9.52;;
75274;SDS011;63871;47.216;39.684;2023-07-02T01:37:00;15.93;;;9.55;;
75274;SDS011;63871;47.216;39.684;2023-07-02T01:39:27;17.13;;;9.50;;
75274;SDS011;63871;47.216;39.684;2023-07-02T01:41:54;17.52;;;9.80;;
75274;SDS011;63871;47.216;39.684;2023-07-02T01:44:21;15.65;;;9.95;;
75274;SDS011;63871;47.216;39.684;2023-07-02T01:46:47;16.17;;;9.73;;
75274;SDS011;63871;47.216;39.684;2023-07-02T01:49:14;16.48;;;9.77;;
75274;SDS011;63871;47.216;39.684;2023-07-02T01:51:44;20.85;;;9.45;;
75274;SDS011;63871;47.216;39.684;2023-07-02T01:54:20;15.13;;;9.27;;
75274;SDS011;63871;47.216;39.684;2023-07-02T01:57:08;19.88;;;11.75;;
75274;SDS011;63871;47.216;39.684;2023-07-02T01:59:34;17.95;;;10.48;;
75274;SDS011;63871;47.216;39.684;2023-07-02T02:01:59;16.02;;;9.35;;
75274;SDS011;63871;47.216;39.684;2023-07-02T02:04:25;13.52;;;8.75;;
75274;SDS011;63871;47.216;39.684;2023-07-02T02:06:52;17.02;;;9.02;;
75274;SDS011;63871;47.216;39.684;2023-07-02T02:09:18;20.55;;;9.60;;
75274;SDS011;63871;47.216;39.684;2023-07-02T02:11:45;16.02;;;9.43;;
75274;SDS011;63871;47.216;39.684;2023-07-02T02:14:29;17.73;;;10.20;;
75274;SDS011;63871;47.216;39.684;2023-07-02T02:16:56;15.32;;;9.43;;
75274;SDS011;63871;47.216;39.684;2023-07-02T02:19:22;14.50;;;7.82;;
75274;SDS011;63871;47.216;39.684;2023-07-02T02:21:48;17.40;;;9.25;;
75274;SDS011;63871;47.216;39.684;2023-07-02T02:24:14;15.57;;;9.07;;
75274;SDS011;63871;47.216;39.684;2023-07-02T02:26:40;14.05;;;9.57;;
75274;SDS011;63871;47.216;39.684;2023-07-02T02:29:05;16.27;;;8.57;;
75274;SDS011;63871;47.216;39.684;2023-07-02T02:31:31;16.27;;;9.65;;
75274;SDS011;63871;47.216;39.684;2023-07-02T02:34:15;22.48;;;9.50;;
75274;SDS011;63871;47.216;39.684;2023-07-02T02:36:41;15.80;;;9.02;;
75274;SDS011;63871;47.216;39.684;2023-07-02T02:39:07;13.93;;;8.23;;
75274;SDS011;63871;47.216;39.684;2023-07-02T02:44:20;15.05;;;10.77;;
75274;SDS011;63871;47.216;39.684;2023-07-02T02:46:45;19.20;;;9.27;;
75274;SDS011;63871;47.216;39.684;2023-07-02T02:49:12;11.95;;;8.00;;
75274;SDS011;63871;47.216;39.684;2023-07-02T02:51:37;14.77;;;7.43;;
75274;SDS011;63871;47.216;39.684;2023-07-02T02:54:03;16.05;;;9.07;;
75274;SDS011;63871;47.216;39.684;2023-07-02T02:56:29;11.82;;;7.68;;
75274;SDS011;63871;47.216;39.684;2023-07-02T02:58:54;17.08;;;8.52;;
75274;SDS011;63871;47.216;39.684;2023-07-02T03:01:20;16.33;;;8.27;;
75274;SDS011;63871;47.216;39.684;2023-07-02T03:03:46;15.65;;;8.50;;
75274;SDS011;63871;47.216;39.684;2023-07-02T03:06:12;12.55;;;8.40;;
75274;SDS011;63871;47.216;39.684;2023-07-02T03:08:57;14.27;;;8.80;;
75274;SDS011;63871;47.216;39.684;2023-07-02T03:11:23;12.40;;;8.02;;
75274;SDS011;63871;47.216;39.684;2023-07-02T03:13:49;13.55;;;8.70;;
75274;SDS011;63871;47.216;39.684;2023-07-02T03:16:33;14.50;;;8.52;;
75274;SDS011;63871;47.216;39.684;2023-07-02T03:21:43;18.45;;;9.43;;
75274;SDS011;63871;47.216;39.684;2023-07-02T03:24:28;14.63;;;9.18;;
75274;SDS011;63871;47.216;39.684;2023-07-02T03:26:53;16.50;;;8.02;;
75274;SDS011;63871;47.216;39.684;2023-07-02T03:29:19;11.05;;;7.63;;
75274;SDS011;63871;47.216;39.684;2023-07-02T03:31:45;22.40;;;9.40;;
75274;SDS011;63871;47.216;39.684;2023-07-02T03:34:12;17.25;;;10.57;;
75274;SDS011;63871;47.216;39.684;2023-07-02T03:36:37;14.68;;;7.97;;
75274;SDS011;63871;47.216;39.684;2023-07-02T03:39:41;14.07;;;7.38;;
75274;SDS011;63871;47.216;39.684;2023-07-02T03:42:07;10.85;;;7.65;;
75274;SDS011;63871;47.216;39.684;2023-07-02T03:44:33;15.48;;;7.95;;
75274;SDS011;63871;47.216;39.684;2023-07-02T03:47:17;13.45;;;8.32;;
75274;SDS011;63871;47.216;39.684;2023-07-02T03:50:03;15.60;;;7.57;;
75274;SDS011;63871;47.216;39.684;2023-07-02T03:52:29;11.93;;;7.65;;
75274;SDS011;63871;47.216;39.684;2023-07-02T03:54:54;13.63;;;7.75;;
75274;SDS011;63871;47.216;39.684;2023-07-02T03:57:20;13.82;;;7.20;;
75274;SDS011;63871;47.216;39.684;2023-07-02T03:59:46;12.40;;;7.70;;
75274;SDS011;63871;47.216;39.684;2023-07-02T04:02:12;13.77;;;7.10;;
75274;SDS011;63871;47.216;39.684;2023-07-02T04:04:37;12.60;;;7.60;;
75274;SDS011;63871;47.216;39.684;2023-07-02T04:07:03;13.35;;;6.20;;
75274;SDS011;63871;47.216;39.684;2023-07-02T04:09:29;14.02;;;7.15;;
75274;SDS011;63871;47.216;39.684;2023-07-02T04:11:57;12.93;;;6.72;;
75274;SDS011;63871;47.216;39.684;2023-07-02T04:14:22;15.00;;;7.28;;
75274;SDS011;63871;47.216;39.684;2023-07-02T04:16:48;10.50;;;6.53;;
75274;SDS011;63871;47.216;39.684;2023-07-02T04:19:14;12.90;;;6.68;;
75274;SDS011;63871;47.216;39.684;2023-07-02T04:21:40;16.25;;;7.18;;
75274;SDS011;63871;47.216;39.684;2023-07-02T04:24:06;12.65;;;6.97;;
75274;SDS011;63871;47.216;39.684;2023-07-02T04:26:31;14.50;;;5.95;;
75274;SDS011;63871;47.216;39.684;2023-07-02T04:28:57;14.57;;;7.25;;
75274;SDS011;63871;47.216;39.684;2023-07-02T04:31:24;12.07;;;6.75;;
75274;SDS011;63871;47.216;39.684;2023-07-02T04:33:50;15.85;;;7.60;;
75274;SDS011;63871;47.216;39.684;2023-07-02T04:36:15;14.52;;;6.38;;
75274;SDS011;63871;47.216;39.684;2023-07-02T04:38:41;9.68;;;6.25;;
75274;SDS011;63871;47.216;39.684;2023-07-02T04:41:07;10.93;;;6.13;;
75274;SDS011;63871;47.216;39.684;2023-07-02T04:43:35;11.85;;;6.22;;
75274;SDS011;63871;47.216;39.684;2023-07-02T04:46:01;15.13;;;6.55;;
75274;SDS011;63871;47.216;39.684;2023-07-02T04:48:28;11.05;;;6.25;;
75274;SDS011;63871;47.216;39.684;2023-07-02T04:51:12;13.90;;;5.95;;
75274;SDS011;63871;47.216;39.684;2023-07-02T04:53:38;11.13;;;5.72;;
75274;SDS011;63871;47.216;39.684;2023-07-02T04:56:03;10.65;;;6.32;;
75274;SDS011;63871;47.216;39.684;2023-07-02T04:58:29;13.85;;;5.88;;
75274;SDS011;63871;47.216;39.684;2023-07-02T05:00:55;11.32;;;6.15;;
75274;SDS011;63871;47.216;39.684;2023-07-02T05:03:21;12.63;;;6.32;;
75274;SDS011;63871;47.216;39.684;2023-07-02T05:05:46;12.60;;;6.53;;
75274;SDS011;63871;47.216;39.684;2023-07-02T05:08:12;10.88;;;5.57;;
75274;SDS011;63871;47.216;39.684;2023-07-02T05:10:38;10.10;;;5.85;;
75274;SDS011;63871;47.216;39.684;2023-07-02T05:13:04;9.02;;;5.78;;
75274;SDS011;63871;47.216;39.684;2023-07-02T05:15:30;12.77;;;5.60;;
75274;SDS011;63871;47.216;39.684;2023-07-02T05:17:56;13.75;;;6.32;;
75274;SDS011;63871;47.216;39.684;2023-07-02T05:20:21;10.63;;;4.95;;
75274;SDS011;63871;47.216;39.684;2023-07-02T05:22:47;8.98;;;4.95;;
75274;SDS011;63871;47.216;39.684;2023-07-02T05:25:13;10.88;;;5.35;;
75274;SDS011;63871;47.216;39.684;2023-07-02T05:27:39;10.73;;;5.30;;
75274;SDS011;63871;47.216;39.684;2023-07-02T05:30:04;9.45;;;4.85;;
75274;SDS011;63871;47.216;39.684;2023-07-02T05:32:33;12.93;;;5.63;;
75274;SDS011;63871;47.216;39.684;2023-07-02T05:34:59;11.13;;;4.85;;
75274;SDS011;63871;47.216;39.684;2023-07-02T05:37:25;11.38;;;5.10;;
75274;SDS011;63871;47.216;39.684;2023-07-02T05:42:54;8.35;;;5.03;;
75274;SDS011;63871;47.216;39.684;2023-07-02T05:45:20;10.70;;;4.90;;
75274;SDS011;63871;47.216;39.684;2023-07-02T05:47:46;8.38;;;4.82;;
75274;SDS011;63871;47.216;39.684;2023-07-02T05:50:12;9.18;;;5.05;;
75274;SDS011;63871;47.216;39.684;2023-07-02T05:52:38;8.25;;;4.05;;
75274;SDS011;63871;47.216;39.684;2023-07-02T05:55:03;8.57;;;4.47;;
75274;SDS011;63871;47.216;39.684;2023-07-02T05:57:29;7.57;;;4.53;;
75274;SDS011;63871;47.216;39.684;2023-07-02T05:59:55;7.35;;;4.00;;
75274;SDS011;63871;47.216;39.684;2023-07-02T06:02:21;9.35;;;4.75;;
75274;SDS011;63871;47.216;39.684;2023-07-02T06:04:47;8.98;;;4.15;;
75274;SDS011;63871;47.216;39.684;2023-07-02T06:07:12;11.80;;;4.20;;
75274;SDS011;63871;47.216;39.684;2023-07-02T06:09:38;7.20;;;4.30;;
75274;SDS011;63871;47.216;39.684;2023-07-02T06:12:04;6.97;;;3.38;;
75274;SDS011;63871;47.216;39.684;2023-07-02T06:14:30;10.40;;;5.30;;
75274;SDS011;63871;47.216;39.684;2023-07-02T06:16:56;6.78;;;3.65;;
75274;SDS011;63871;47.216;39.684;2023-07-02T06:19:22;10.82;;;4.80;;
75274;SDS011;63871;47.216;39.684;2023-07-02T06:21:48;20.85;;;4.57;;
75274;SDS011;63871;47.216;39.684;2023-07-02T06:24:14;5.88;;;3.60;;
75274;SDS011;63871;47.216;39.684;2023-07-02T06:26:39;7.97;;;3.95;;
75274;SDS011;63871;47.216;39.684;2023-07-02T06:29:05;8.00;;;3.50;;
75274;SDS011;63871;47.216;39.684;2023-07-02T06:31:31;7.60;;;4.40;;
75274;SDS011;63871;47.216;39.684;2023-07-02T06:33:56;5.13;;;3.58;;
75274;SDS011;63871;47.216;39.684;2023-07-02T06:36:22;9.10;;;4.50;;
75274;SDS011;63871;47.216;39.684;2023-07-02T06:38:48;8.77;;;4.07;;
75274;SDS011;63871;47.216;39.684;2023-07-02T06:41:14;8.50;;;4.00;;
75274;SDS011;63871;47.216;39.684;2023-07-02T06:43:43;6.50;;;4.00;;
75274;SDS011;63871;47.216;39.684;2023-07-02T06:46:10;7.35;;;4.60;;
75274;SDS011;63871;47.216;39.684;2023-07-02T06:48:36;8.27;;;4.20;;
75274;SDS011;63871;47.216;39.684;2023-07-02T06:51:01;9.52;;;3.65;;
75274;SDS011;63871;47.216;39.684;2023-07-02T06:53:27;8.48;;;3.80;;
75274;SDS011;63871;47.216;39.684;2023-07-02T06:55:53;7.30;;;3.80;;
75274;SDS011;63871;47.216;39.684;2023-07-02T06:58:19;10.20;;;3.92;;
75274;SDS011;63871;47.216;39.684;2023-07-02T07:00:45;7.57;;;3.65;;
75274;SDS011;63871;47.216;39.684;2023-07-02T07:03:10;8.93;;;4.05;;
75274;SDS011;63871;47.216;39.684;2023-07-02T07:05:36;15.00;;;3.53;;
75274;SDS011;63871;47.216;39.684;2023-07-02T07:08:02;8.85;;;3.75;;
75274;SDS011;63871;47.216;39.684;2023-07-02T07:10:28;6.43;;;3.40;;
75274;SDS011;63871;47.216;39.684;2023-07-02T07:13:00;5.60;;;3.33;;
75274;SDS011;63871;47.216;39.684;2023-07-02T07:15:29;7.18;;;3.10;;
75274;SDS011;63871;47.216;39.684;2023-07-02T07:17:57;6.55;;;3.10;;
75274;SDS011;63871;47.216;39.684;2023-07-02T07:20:23;6.13;;;3.08;;
75274;SDS011;63871;47.216;39.684;2023-07-02T07:22:49;4.75;;;3.28;;
75274;SDS011;63871;47.216;39.684;2023-07-02T07:25:14;9.23;;;3.35;;
75274;SDS011;63871;47.216;39.684;2023-07-02T07:27:40;6.18;;;3.22;;
75274;SDS011;63871;47.216;39.684;2023-07-02T07:30:06;6.25;;;3.30;;
75274;SDS011;63871;47.216;39.684;2023-07-02T07:32:32;9.45;;;3.40;;
75274;SDS011;63871;47.216;39.684;2023-07-02T07:34:58;5.22;;;3.22;;
75274;SDS011;63871;47.216;39.684;2023-07-02T07:37:24;6.38;;;3.38;;
75274;SDS011;63871;47.216;39.684;2023-07-02T07:39:53;7.80;;;3.10;;
75274;SDS011;63871;47.216;39.684;2023-07-02T07:42:19;5.32;;;2.80;;
75274;SDS011;63871;47.216;39.684;2023-07-02T07:44:45;4.40;;;3.08;;
75274;SDS011;63871;47.216;39.684;2023-07-02T07:47:11;6.75;;;3.70;;
75274;SDS011;63871;47.216;39.684;2023-07-02T07:49:37;6.77;;;3.53;;
75274;SDS011;63871;47.216;39.684;2023-07-02T07:52:03;5.72;;;3.72;;
75274;SDS011;63871;47.216;39.684;2023-07-02T07:54:32;5.28;;;3.45;;
75274;SDS011;63871;47.216;39.684;2023-07-02T07:56:59;6.57;;;3.60;;
75274;SDS011;63871;47.216;39.684;2023-07-02T07:59:25;4.97;;;3.47;;
75274;SDS011;63871;47.216;39.684;2023-07-02T08:01:51;5.10;;;2.88;;
75274;SDS011;63871;47.216;39.684;2023-07-02T08:04:17;7.78;;;3.83;;
75274;SDS011;63871;47.216;39.684;2023-07-02T08:06:42;5.90;;;3.35;;
75274;SDS011;63871;47.216;39.684;2023-07-02T08:09:08;7.57;;;3.70;;
75274;SDS011;63871;47.216;39.684;2023-07-02T08:11:35;12.63;;;4.15;;
75274;SDS011;63871;47.216;39.684;2023-07-02T08:14:00;8.30;;;3.40;;
75274;SDS011;63871;47.216;39.684;2023-07-02T08:16:26;8.55;;;3.80;;
75274;SDS011;63871;47.216;39.684;2023-07-02T08:18:52;9.02;;;3.58;;
75274;SDS011;63871;47.216;39.684;2023-07-02T08:21:17;8.48;;;3.70;;
75274;SDS011;63871;47.216;39.684;2023-07-02T08:23:43;6.47;;;3.92;;
75274;SDS011;63871;47.216;39.684;2023-07-02T08:26:09;7.10;;;3.67;;
75274;SDS011;63871;47.216;39.684;2023-07-02T08:28:36;7.72;;;3.53;;
75274;SDS011;63871;47.216;39.684;2023-07-02T08:31:03;8.50;;;3.10;;
75274;SDS011;63871;47.216;39.684;2023-07-02T08:33:29;7.50;;;3.63;;
75274;SDS011;63871;47.216;39.684;2023-07-02T08:35:55;5.72;;;3.60;;
75274;SDS011;63871;47.216;39.684;2023-07-02T08:38:23;9.50;;;3.75;;
75274;SDS011;63871;47.216;39.684;2023-07-02T08:40:49;9.68;;;6.07;;
75274;SDS011;63871;47.216;39.684;2023-07-02T08:43:15;6.60;;;3.70;;
75274;SDS011;63871;47.216;39.684;2023-07-02T08:45:41;9.57;;;3.50;;
75274;SDS011;63871;47.216;39.684;2023-07-02T08:48:07;6.50;;;3.13;;
75274;SDS011;63871;47.216;39.684;2023-07-02T08:50:33;7.18;;;3.92;;
75274;SDS011;63871;47.216;39.684;2023-07-02T08:52:59;7.22;;;3.13;;
75274;SDS011;63871;47.216;39.684;2023-07-02T08:55:25;5.32;;;3.60;;
75274;SDS011;63871;47.216;39.684;2023-07-02T08:57:53;7.90;;;4.22;;
75274;SDS011;63871;47.216;39.684;2023-07-02T09:00:19;8.23;;;3.88;;
75274;SDS011;63871;47.216;39.684;2023-07-02T09:02:46;5.47;;;3.45;;
75274;SDS011;63871;47.216;39.684;2023-07-02T09:05:12;6.13;;;3.60;;
75274;SDS011;63871;47.216;39.684;2023-07-02T09:07:47;6.32;;;3.78;;
75274;SDS011;63871;47.216;39.684;2023-07-02T09:10:30;6.43;;;3.17;;
75274;SDS011;63871;47.216;39.684;2023-07-02T09:13:06;7.28;;;3.50;;
75274;SDS011;63871;47.216;39.684;2023-07-02T09:15:36;6.55;;;3.00;;
75274;SDS011;63871;47.216;39.684;2023-07-02T09:18:02;6.78;;;3.13;;
75274;SDS011;63871;47.216;39.684;2023-07-02T09:20:39;6.18;;;3.67;;
75274;SDS011;63871;47.216;39.684;2023-07-02T09:23:05;7.80;;;3.40;;
75274;SDS011;63871;47.216;39.684;2023-07-02T09:25:37;9.15;;;3.70;;
75274;SDS011;63871;47.216;39.684;2023-07-02T09:28:24;6.32;;;3.75;;
75274;SDS011;63871;47.216;39.684;2023-07-02T09:30:52;7.30;;;3.63;;
75274;SDS011;63871;47.216;39.684;2023-07-02T09:33:20;6.88;;;3.67;;
75274;SDS011;63871;47.216;39.684;2023-07-02T09:35:48;4.85;;;3.55;;
75274;SDS011;63871;47.216;39.684;2023-07-02T09:38:15;6.68;;;3.10;;
75274;SDS011;63871;47.216;39.684;2023-07-02T09:41:00;6.20;;;3.08;;
75274;SDS011;63871;47.216;39.684;2023-07-02T09:43:25;7.00;;;3.65;;
75274;SDS011;63871;47.216;39.684;2023-07-02T09:45:52;6.45;;;3.30;;
75274;SDS011;63871;47.216;39.684;2023-07-02T09:48:22;7.05;;;3.15;;
75274;SDS011;63871;47.216;39.684;2023-07-02T09:50:50;4.70;;;3.00;;
75274;SDS011;63871;47.216;39.684;2023-07-02T09:53:16;5.97;;;3.03;;
75274;SDS011;63871;47.216;39.684;2023-07-02T09:55:42;6.32;;;3.63;;
75274;SDS011;63871;47.216;39.684;2023-07-02T09:58:09;6.85;;;3.22;;
75274;SDS011;63871;47.216;39.684;2023-07-02T10:00:35;6.00;;;3.60;;
75274;SDS011;63871;47.216;39.684;2023-07-02T10:03:01;5.85;;;3.47;;
75274;SDS011;63871;47.216;39.684;2023-07-02T10:05:28;7.10;;;3.40;;
75274;SDS011;63871;47.216;39.684;2023-07-02T10:07:58;7.43;;;3.95;;
75274;SDS011;63871;47.216;39.684;2023-07-02T10:10:37;6.25;;;3.70;;
75274;SDS011;63871;47.216;39.684;2023-07-02T10:13:03;4.80;;;3.70;;
75274;SDS011;63871;47.216;39.684;2023-07-02T10:15:29;7.00;;;3.60;;
75274;SDS011;63871;47.216;39.684;2023-07-02T10:18:02;6.88;;;3.50;;
75274;SDS011;63871;47.216;39.684;2023-07-02T10:20:38;8.10;;;3.50;;
75274;SDS011;63871;47.216;39.684;2023-07-02T10:25:35;6.78;;;3.60;;
75274;SDS011;63871;47.216;39.684;2023-07-02T10:28:16;8.27;;;3.38;;
75274;SDS011;63871;47.216;39.684;2023-07-02T10:30:43;4.93;;;3.05;;
75274;SDS011;63871;47.216;39.684;2023-07-02T10:33:18;6.20;;;2.72;;
75274;SDS011;63871;47.216;39.684;2023-07-02T10:35:45;5.50;;;2.90;;
75274;SDS011;63871;47.216;39.684;2023-07-02T10:40:41;4.65;;;2.47;;
75274;SDS011;63871;47.216;39.684;2023-07-02T10:43:08;5.10;;;2.53;;
75274;SDS011;63871;47.216;39.684;2023-07-02T10:45:34;18.83;;;3.40;;
75274;SDS011;63871;47.216;39.684;2023-07-02T10:48:04;4.15;;;2.50;;
75274;SDS011;63871;47.216;39.684;2023-07-02T10:50:34;6.40;;;2.95;;
75274;SDS011;63871;47.216;39.684;2023-07-02T10:53:00;4.95;;;2.97;;
75274;SDS011;63871;47.216;39.684;2023-07-02T10:55:26;5.55;;;3.13;;
75274;SDS011;63871;47.216;39.684;2023-07-02T10:58:06;5.47;;;3.03;;
75274;SDS011;63871;47.216;39.684;2023-07-02T11:00:42;4.65;;;3.10;;
75274;SDS011;63871;47.216;39.684;2023-07-02T11:03:21;4.97;;;2.90;;
75274;SDS011;63871;47.216;39.684;2023-07-02T11:05:48;8.55;;;3.13;;
75274;SDS011;63871;47.216;39.684;2023-07-02T11:08:15;6.10;;;3.42;;
75274;SDS011;63871;47.216;39.684;2023-07-02T11:10:41;8.00;;;2.80;;
75274;SDS011;63871;47.216;39.684;2023-07-02T11:13:13;6.72;;;2.80;;
75274;SDS011;63871;47.216;39.684;2023-07-02T11:15:41;7.53;;;2.95;;
75274;SDS011;63871;47.216;39.684;2023-07-02T11:18:16;7.50;;;3.20;;
75274;SDS011;63871;47.216;39.684;2023-07-02T11:20:44;4.20;;;2.78;;
75274;SDS011;63871;47.216;39.684;2023-07-02T11:23:20;5.13;;;2.72;;
75274;SDS011;63871;47.216;39.684;2023-07-02T11:28:23;4.63;;;3.10;;
75274;SDS011;63871;47.216;39.684;2023-07-02T11:30:49;7.93;;;3.10;;
75274;SDS011;63871;47.216;39.684;2023-07-02T11:33:15;4.40;;;2.85;;
75274;SDS011;63871;47.216;39.684;2023-07-02T11:35:41;4.45;;;2.83;;
75274;SDS011;63871;47.216;39.684;2023-07-02T11:38:09;4.68;;;3.00;;
75274;SDS011;63871;47.216;39.684;2023-07-02T11:43:04;6.20;;;3.30;;
75274;SDS011;63871;47.216;39.684;2023-07-02T11:45:31;7.97;;;3.35;;
75274;SDS011;63871;47.216;39.684;2023-07-02T11:47:57;4.63;;;2.95;;
75274;SDS011;63871;47.216;39.684;2023-07-02T11:50:23;6.18;;;3.20;;
75274;SDS011;63871;47.216;39.684;2023-07-02T11:52:48;4.68;;;3.10;;
75274;SDS011;63871;47.216;39.684;2023-07-02T11:55:14;4.63;;;2.90;;
75274;SDS011;63871;47.216;39.684;2023-07-02T11:57:40;4.95;;;3.20;;
75274;SDS011;63871;47.216;39.684;2023-07-02T12:00:06;5.65;;;3.42;;
75274;SDS011;63871;47.216;39.684;2023-07-02T12:02:33;7.00;;;3.65;;
75274;SDS011;63871;47.216;39.684;2023-07-02T12:04:59;5.45;;;3.50;;
75274;SDS011;63871;47.216;39.684;2023-07-02T12:07:24;6.53;;;3.65;;
75274;SDS011;63871;47.216;39.684;2023-07-02T12:09:50;4.53;;;3.35;;
75274;SDS011;63871;47.216;39.684;2023-07-02T12:12:16;8.55;;;4.15;;
75274;SDS011;63871;47.216;39.684;2023-07-02T12:14:42;10.77;;;3.90;;
75274;SDS011;63871;47.216;39.684;2023-07-02T12:17:09;7.90;;;3.42;;
75274;SDS011;63871;47.216;39.684;2023-07-02T12:19:38;5.72;;;4.10;;
75274;SDS011;63871;47.216;39.684;2023-07-02T12:22:05;8.30;;;3.53;;
75274;SDS011;63871;47.216;39.684;2023-07-02T12:24:30;5.97;;;3.45;;
75274;SDS011;63871;47.216;39.684;2023-07-02T12:26:56;8.40;;;4.05;;
75274;SDS011;63871;47.216;39.684;2023-07-02T12:29:22;7.72;;;3.30;;
75274;SDS011;63871;47.216;39.684;2023-07-02T12:31:47;6.00;;;3.50;;
75274;SDS011;63871;47.216;39.684;2023-07-02T12:34:13;6.78;;;3.45;;
75274;SDS011;63871;47.216;39.684;2023-07-02T12:36:39;6.57;;;3.35;;
75274;SDS011;63871;47.216;39.684;2023-07-02T12:39:05;4.45;;;2.97;;
75274;SDS011;63871;47.216;39.684;2023-07-02T12:41:32;6.20;;;4.18;;
75274;SDS011;63871;47.216;39.684;2023-07-02T12:43:58;5.88;;;3.60;;
75274;SDS011;63871;47.216;39.684;2023-07-02T12:46:24;6.07;;;3.03;;
75274;SDS011;63871;47.216;39.684;2023-07-02T12:48:50;6.60;;;3.83;;
75274;SDS011;63871;47.216;39.684;2023-07-02T12:51:16;5.82;;;3.28;;
75274;SDS011;63871;47.216;39.684;2023-07-02T12:53:42;5.65;;;3.45;;
75274;SDS011;63871;47.216;39.684;2023-07-02T12:56:07;4.97;;;3.15;;
75274;SDS011;63871;47.216;39.684;2023-07-02T12:58:33;7.28;;;3.63;;
75274;SDS011;63871;47.216;39.684;2023-07-02T13:00:59;6.60;;;3.22;;
75274;SDS011;63871;47.216;39.684;2023-07-02T13:03:24;4.80;;;3.13;;
75274;SDS011;63871;47.216;39.684;2023-07-02T13:05:50;6.03;;;3.35;;
75274;SDS011;63871;47.216;39.684;2023-07-02T13:08:16;6.18;;;3.13;;
75274;SDS011;63871;47.216;39.684;2023-07-02T13:10:42;5.82;;;3.17;;
75274;SDS011;63871;47.216;39.684;2023-07-02T13:13:09;5.93;;;2.92;;
75274;SDS011;63871;47.216;39.684;2023-07-02T13:15:34;5.55;;;2.80;;
75274;SDS011;63871;47.216;39.684;2023-07-02T13:18:00;5.57;;;3.00;;
75274;SDS011;63871;47.216;39.684;2023-07-02T13:20:27;5.43;;;3.03;;
75274;SDS011;63871;47.216;39.684;2023-07-02T13:22:52;4.63;;;2.97;;
75274;SDS011;63871;47.216;39.684;2023-07-02T13:25:18;4.47;;;2.72;;
75274;SDS011;63871;47.216;39.684;2023-07-02T13:27:44;6.10;;;2.97;;
75274;SDS011;63871;47.216;39.684;2023-07-02T13:30:10;6.57;;;3.08;;
75274;SDS011;63871;47.216;39.684;2023-07-02T13:32:35;7.15;;;2.88;;
75274;SDS011;63871;47.216;39.684;2023-07-02T13:35:01;11.00;;;2.83;;
75274;SDS011;63871;47.216;39.684;2023-07-02T13:37:27;5.90;;;2.58;;
75274;SDS011;63871;47.216;39.684;2023-07-02T13:39:53;5.40;;;2.70;;
75274;SDS011;63871;47.216;39.684;2023-07-02T13:42:19;4.00;;;2.38;;
75274;SDS011;63871;47.216;39.684;2023-07-02T13:44:45;8.75;;;3.97;;
75274;SDS011;63871;47.216;39.684;2023-07-02T13:47:11;8.23;;;2.80;;
75274;SDS011;63871;47.216;39.684;2023-07-02T13:49:36;4.18;;;2.40;;
75274;SDS011;63871;47.216;39.684;2023-07-02T13:52:02;3.80;;;2.10;;
75274;SDS011;63871;47.216;39.684;2023-07-02T13:54:28;4.35;;;2.30;;
75274;SDS011;63871;47.216;39.684;2023-07-02T13:56:55;5.22;;;2.50;;
75274;SDS011;63871;47.216;39.684;2023-07-02T13:59:21;5.15;;;2.75;;
75274;SDS011;63871;47.216;39.684;2023-07-02T14:01:47;5.03;;;2.65;;
75274;SDS011;63871;47.216;39.684;2023-07-02T14:04:13;4.75;;;2.72;;
75274;SDS011;63871;47.216;39.684;2023-07-02T14:06:40;6.40;;;2.42;;
75274;SDS011;63871;47.216;39.684;2023-07-02T14:09:06;3.92;;;2.25;;
75274;SDS011;63871;47.216;39.684;2023-07-02T14:11:33;6.88;;;2.63;;
75274;SDS011;63871;47.216;39.684;2023-07-02T14:14:01;6.25;;;2.40;;
75274;SDS011;63871;47.216;39.684;2023-07-02T14:16:27;7.10;;;2.92;;
75274;SDS011;63871;47.216;39.684;2023-07-02T14:18:52;7.00;;;2.30;;
75274;SDS011;63871;47.216;39.684;2023-07-02T14:21:18;5.97;;;1.90;;
75274;SDS011;63871;47.216;39.684;2023-07-02T14:23:45;5.65;;;2.28;;
75274;SDS011;63871;47.216;39.684;2023-07-02T14:26:11;5.85;;;2.28;;
75274;SDS011;63871;47.216;39.684;2023-07-02T14:28:37;5.00;;;2.72;;
75274;SDS011;63871;47.216;39.684;2023-07-02T14:31:04;6.85;;;2.58;;
75274;SDS011;63871;47.216;39.684;2023-07-02T14:33:31;7.32;;;2.97;;
75274;SDS011;63871;47.216;39.684;2023-07-02T14:35:58;5.80;;;3.20;;
75274;SDS011;63871;47.216;39.684;2023-07-02T14:38:25;4.45;;;2.53;;
75274;SDS011;63871;47.216;39.684;2023-07-02T14:40:53;4.32;;;2.55;;
75274;SDS011;63871;47.216;39.684;2023-07-02T14:43:19;6.28;;;3.38;;
75274;SDS011;63871;47.216;39.684;2023-07-02T14:45:51;3.80;;;2.30;;
75274;SDS011;63871;47.216;39.684;2023-07-02T14:48:18;5.13;;;2.42;;
75274;SDS011;63871;47.216;39.684;2023-07-02T14:50:54;5.43;;;2.88;;
75274;SDS011;63871;47.216;39.684;2023-07-02T14:53:22;6.03;;;2.42;;
75274;SDS011;63871;47.216;39.684;2023-07-02T14:55:48;6.38;;;3.20;;
75274;SDS011;63871;47.216;39.684;2023-07-02T14:58:15;6.65;;;2.88;;